sensor_id;sensor_type;location;lat;lon;timestamp;temperature;humidity
43987;DHT22;29650;47.378;8.300;2023-10-13T00:02:06;14.00;99.90
43987;DHT22;29650;47.378;8.300;2023-10-13T00:04:34;14.10;99.90
43987;DHT22;29650;47.378;8.300;2023-10-13T00:07:02;14.10;99.90
43987;DHT22;29650;47.378;8.300;2023-10-13T00:09:30;14.10;99.90
43987;DHT22;29650;47.378;8.300;2023-10-13T00:11:58;14.00;99.90
43987;DHT22;29650;47.378;8.300;2023-10-13T00:14:27;14.00;99.90
43987;DHT22;29650;47.378;8.300;2023-10-13T00:17:00;14.00;99.90
43987;DHT22;29650;47.378;8.300;2023-10-13T00:19:35;14.00;99.90
43987;DHT22;29650;47.378;8.300;2023-10-13T00:22:11;13.90;99.90
43987;DHT22;29650;47.378;8.300;2023-10-13T00:24:43;13.90;99.90
43987;DHT22;29650;47.378;8.300;2023-10-13T00:27:12;13.90;99.90
43987;DHT22;29650;47.378;8.300;2023-10-13T00:29:56;13.90;99.90
43987;DHT22;29650;47.378;8.300;2023-10-13T00:32:47;14.00;99.90
43987;DHT22;29650;47.378;8.300;2023-10-13T00:35:19;13.90;99.90
43987;DHT22;29650;47.378;8.300;2023-10-13T00:37:52;13.60;99.90
43987;DHT22;29650;47.378;8.300;2023-10-13T00:40:21;13.50;99.90
43987;DHT22;29650;47.378;8.300;2023-10-13T00:43:07;13.60;99.90
43987;DHT22;29650;47.378;8.300;2023-10-13T00:45:54;13.60;99.90
43987;DHT22;29650;47.378;8.300;2023-10-13T00:48:23;13.50;99.90
43987;DHT22;29650;47.378;8.300;2023-10-13T00:50:56;13.60;99.90
43987;DHT22;29650;47.378;8.300;2023-10-13T00:53:25;13.70;99.90
43987;DHT22;29650;47.378;8.300;2023-10-13T00:55:52;13.60;99.90
43987;DHT22;29650;47.378;8.300;2023-10-13T00:58:22;13.60;99.90
43987;DHT22;29650;47.378;8.300;2023-10-13T01:00:49;13.60;99.90
43987;DHT22;29650;47.378;8.300;2023-10-13T01:03:24;13.40;99.90
43987;DHT22;29650;47.378;8.300;2023-10-13T01:05:53;13.30;99.90
43987;DHT22;29650;47.378;8.300;2023-10-13T01:08:32;13.40;99.90
43987;DHT22;29650;47.378;8.300;2023-10-13T01:11:00;13.50;99.90
43987;DHT22;29650;47.378;8.300;2023-10-13T01:13:27;13.50;99.90
43987;DHT22;29650;47.378;8.300;2023-10-13T01:15:56;13.30;99.90
43987;DHT22;29650;47.378;8.300;2023-10-13T01:18:24;13.50;99.90
43987;DHT22;29650;47.378;8.300;2023-10-13T01:20:54;13.30;99.90
43987;DHT22;29650;47.378;8.300;2023-10-13T01:23:26;13.00;99.90
43987;DHT22;29650;47.378;8.300;2023-10-13T01:25:54;13.00;99.90
43987;DHT22;29650;47.378;8.300;2023-10-13T01:28:22;12.90;99.90
43987;DHT22;29650;47.378;8.300;2023-10-13T01:30:48;12.80;99.90
43987;DHT22;29650;47.378;8.300;2023-10-13T01:33:16;12.70;99.90
43987;DHT22;29650;47.378;8.300;2023-10-13T01:35:42;13.10;99.90
43987;DHT22;29650;47.378;8.300;2023-10-13T01:38:13;13.20;99.90
43987;DHT22;29650;47.378;8.300;2023-10-13T01:40:41;13.00;99.90
43987;DHT22;29650;47.378;8.300;2023-10-13T01:43:08;13.00;99.90
43987;DHT22;29650;47.378;8.300;2023-10-13T01:45:37;13.20;99.90
43987;DHT22;29650;47.378;8.300;2023-10-13T01:48:15;13.20;99.90
43987;DHT22;29650;47.378;8.300;2023-10-13T01:50:43;13.20;99.90
43987;DHT22;29650;47.378;8.300;2023-10-13T01:53:13;13.20;99.90
43987;DHT22;29650;47.378;8.300;2023-10-13T01:55:41;13.20;99.90
43987;DHT22;29650;47.378;8.300;2023-10-13T01:58:10;13.40;99.90
43987;DHT22;29650;47.378;8.300;2023-10-13T02:00:41;13.30;99.90
43987;DHT22;29650;47.378;8.300;2023-10-13T02:03:09;13.50;99.90
43987;DHT22;29650;47.378;8.300;2023-10-13T02:05:41;13.50;99.90
43987;DHT22;29650;47.378;8.300;2023-10-13T02:08:13;13.40;99.90
43987;DHT22;29650;47.378;8.300;2023-10-13T02:10:45;13.30;99.90
43987;DHT22;29650;47.378;8.300;2023-10-13T02:13:13;13.20;99.90
43987;DHT22;29650;47.378;8.300;2023-10-13T02:15:42;13.10;99.90
43987;DHT22;29650;47.378;8.300;2023-10-13T02:18:10;13.00;99.90
43987;DHT22;29650;47.378;8.300;2023-10-13T02:20:36;13.00;99.90
43987;DHT22;29650;47.378;8.300;2023-10-13T02:23:09;12.90;99.90
43987;DHT22;29650;47.378;8.300;2023-10-13T02:25:36;12.90;99.90
43987;DHT22;29650;47.378;8.300;2023-10-13T02:28:13;12.80;99.90
43987;DHT22;29650;47.378;8.300;2023-10-13T02:30:41;12.80;99.90
43987;DHT22;29650;47.378;8.300;2023-10-13T02:33:11;12.80;99.90
43987;DHT22;29650;47.378;8.300;2023-10-13T02:35:38;12.90;99.90
43987;DHT22;29650;47.378;8.300;2023-10-13T02:38:09;12.80;99.90
43987;DHT22;29650;47.378;8.300;2023-10-13T02:40:38;12.80;99.90
43987;DHT22;29650;47.378;8.300;2023-10-13T02:43:05;12.90;99.90
43987;DHT22;29650;47.378;8.300;2023-10-13T02:45:33;12.80;99.90
43987;DHT22;29650;47.378;8.300;2023-10-13T02:48:03;12.70;99.90
43987;DHT22;29650;47.378;8.300;2023-10-13T02:50:39;12.70;99.90
43987;DHT22;29650;47.378;8.300;2023-10-13T02:53:09;12.70;99.90
43987;DHT22;29650;47.378;8.300;2023-10-13T02:55:48;12.60;99.90
43987;DHT22;29650;47.378;8.300;2023-10-13T02:58:15;12.60;99.90
43987;DHT22;29650;47.378;8.300;2023-10-13T03:00:42;12.50;99.90
43987;DHT22;29650;47.378;8.300;2023-10-13T03:03:09;12.50;99.90
43987;DHT22;29650;47.378;8.300;2023-10-13T03:05:35;12.40;99.90
43987;DHT22;29650;47.378;8.300;2023-10-13T03:08:05;12.40;99.90
43987;DHT22;29650;47.378;8.300;2023-10-13T03:10:32;12.40;99.90
43987;DHT22;29650;47.378;8.300;2023-10-13T03:12:59;12.40;99.90
43987;DHT22;29650;47.378;8.300;2023-10-13T03:15:25;12.40;99.90
43987;DHT22;29650;47.378;8.300;2023-10-13T03:17:57;12.50;99.90
43987;DHT22;29650;47.378;8.300;2023-10-13T03:20:24;12.50;99.90
43987;DHT22;29650;47.378;8.300;2023-10-13T03:22:57;12.50;99.90
43987;DHT22;29650;47.378;8.300;2023-10-13T03:25:24;12.60;99.90
43987;DHT22;29650;47.378;8.300;2023-10-13T03:27:55;12.70;99.90
43987;DHT22;29650;47.378;8.300;2023-10-13T03:30:30;12.70;99.90
43987;DHT22;29650;47.378;8.300;2023-10-13T03:33:05;12.70;99.90
43987;DHT22;29650;47.378;8.300;2023-10-13T03:35:36;12.60;99.90
43987;DHT22;29650;47.378;8.300;2023-10-13T03:38:08;12.50;99.90
43987;DHT22;29650;47.378;8.300;2023-10-13T03:40:43;12.50;99.90
43987;DHT22;29650;47.378;8.300;2023-10-13T03:43:15;12.50;99.90
43987;DHT22;29650;47.378;8.300;2023-10-13T03:45:48;12.50;99.90
43987;DHT22;29650;47.378;8.300;2023-10-13T03:48:27;12.50;99.90
43987;DHT22;29650;47.378;8.300;2023-10-13T03:50:57;12.10;99.90
43987;DHT22;29650;47.378;8.300;2023-10-13T03:53:33;12.20;99.90
43987;DHT22;29650;47.378;8.300;2023-10-13T03:56:00;12.20;99.90
43987;DHT22;29650;47.378;8.300;2023-10-13T03:58:38;12.30;99.90
43987;DHT22;29650;47.378;8.300;2023-10-13T04:01:11;12.50;99.90
43987;DHT22;29650;47.378;8.300;2023-10-13T04:03:43;12.40;99.90
43987;DHT22;29650;47.378;8.300;2023-10-13T04:06:28;12.30;99.90
43987;DHT22;29650;47.378;8.300;2023-10-13T04:09:14;12.40;99.90
43987;DHT22;29650;47.378;8.300;2023-10-13T04:11:55;12.20;99.90
43987;DHT22;29650;47.378;8.300;2023-10-13T04:14:38;12.10;99.90
43987;DHT22;29650;47.378;8.300;2023-10-13T04:17:37;12.00;99.90
43987;DHT22;29650;47.378;8.300;2023-10-13T04:20:12;11.90;99.90
43987;DHT22;29650;47.378;8.300;2023-10-13T04:22:41;11.70;99.90
43987;DHT22;29650;47.378;8.300;2023-10-13T04:25:25;11.60;99.90
43987;DHT22;29650;47.378;8.300;2023-10-13T04:28:01;11.70;99.90
43987;DHT22;29650;47.378;8.300;2023-10-13T04:30:41;11.70;99.90
43987;DHT22;29650;47.378;8.300;2023-10-13T04:33:23;11.60;99.90
43987;DHT22;29650;47.378;8.300;2023-10-13T04:36:03;11.70;99.90
43987;DHT22;29650;47.378;8.300;2023-10-13T04:38:40;11.70;99.90
43987;DHT22;29650;47.378;8.300;2023-10-13T04:41:21;11.70;99.90
43987;DHT22;29650;47.378;8.300;2023-10-13T04:43:49;11.80;99.90
43987;DHT22;29650;47.378;8.300;2023-10-13T04:46:21;11.80;99.90
43987;DHT22;29650;47.378;8.300;2023-10-13T04:49:01;11.80;99.90
43987;DHT22;29650;47.378;8.300;2023-10-13T04:51:37;11.80;99.90
43987;DHT22;29650;47.378;8.300;2023-10-13T04:54:25;11.80;99.90
43987;DHT22;29650;47.378;8.300;2023-10-13T04:56:52;11.80;99.90
43987;DHT22;29650;47.378;8.300;2023-10-13T04:59:36;11.70;99.90
43987;DHT22;29650;47.378;8.300;2023-10-13T05:02:24;11.60;99.90
43987;DHT22;29650;47.378;8.300;2023-10-13T05:05:10;11.70;99.90
43987;DHT22;29650;47.378;8.300;2023-10-13T05:07:58;11.70;99.90
43987;DHT22;29650;47.378;8.300;2023-10-13T05:10:43;11.50;99.90
43987;DHT22;29650;47.378;8.300;2023-10-13T05:13:27;11.50;99.90
43987;DHT22;29650;47.378;8.300;2023-10-13T05:16:12;11.50;99.90
43987;DHT22;29650;47.378;8.300;2023-10-13T05:18:56;11.40;99.90
43987;DHT22;29650;47.378;8.300;2023-10-13T05:21:40;11.50;99.90
43987;DHT22;29650;47.378;8.300;2023-10-13T05:24:26;11.40;99.90
43987;DHT22;29650;47.378;8.300;2023-10-13T05:27:11;11.50;99.90
43987;DHT22;29650;47.378;8.300;2023-10-13T05:29:55;11.40;99.90
43987;DHT22;29650;47.378;8.300;2023-10-13T05:32:40;11.40;99.90
43987;DHT22;29650;47.378;8.300;2023-10-13T05:35:24;11.50;99.90
43987;DHT22;29650;47.378;8.300;2023-10-13T05:38:09;11.60;99.90
43987;DHT22;29650;47.378;8.300;2023-10-13T05:40:56;11.60;99.90
43987;DHT22;29650;47.378;8.300;2023-10-13T05:43:41;11.50;99.90
43987;DHT22;29650;47.378;8.300;2023-10-13T05:46:26;11.60;99.90
43987;DHT22;29650;47.378;8.300;2023-10-13T05:49:26;11.50;99.90
43987;DHT22;29650;47.378;8.300;2023-10-13T05:52:16;11.50;99.90
43987;DHT22;29650;47.378;8.300;2023-10-13T05:55:06;11.40;99.90
43987;DHT22;29650;47.378;8.300;2023-10-13T05:57:52;11.40;99.90
43987;DHT22;29650;47.378;8.300;2023-10-13T06:00:40;11.40;99.90
43987;DHT22;29650;47.378;8.300;2023-10-13T06:03:25;10.00;99.90
43987;DHT22;29650;47.378;8.300;2023-10-13T06:06:09;11.30;99.90
43987;DHT22;29650;47.378;8.300;2023-10-13T06:09:08;11.20;99.90
43987;DHT22;29650;47.378;8.300;2023-10-13T06:11:52;11.20;99.90
43987;DHT22;29650;47.378;8.300;2023-10-13T06:14:38;11.20;99.90
43987;DHT22;29650;47.378;8.300;2023-10-13T06:17:23;11.20;99.90
43987;DHT22;29650;47.378;8.300;2023-10-13T06:20:08;11.20;99.90
43987;DHT22;29650;47.378;8.300;2023-10-13T06:22:53;11.30;99.90
43987;DHT22;29650;47.378;8.300;2023-10-13T06:25:38;11.50;99.90
43987;DHT22;29650;47.378;8.300;2023-10-13T06:28:34;11.40;99.90
43987;DHT22;29650;47.378;8.300;2023-10-13T06:31:09;11.40;99.90
43987;DHT22;29650;47.378;8.300;2023-10-13T06:33:40;11.50;99.90
43987;DHT22;29650;47.378;8.300;2023-10-13T06:36:11;11.60;99.90
43987;DHT22;29650;47.378;8.300;2023-10-13T06:38:38;11.60;99.90
43987;DHT22;29650;47.378;8.300;2023-10-13T06:41:06;11.60;99.90
43987;DHT22;29650;47.378;8.300;2023-10-13T06:43:34;11.60;99.90
43987;DHT22;29650;47.378;8.300;2023-10-13T06:46:05;11.60;99.90
43987;DHT22;29650;47.378;8.300;2023-10-13T06:48:34;11.60;99.90
43987;DHT22;29650;47.378;8.300;2023-10-13T06:51:06;11.60;99.90
43987;DHT22;29650;47.378;8.300;2023-10-13T06:53:43;11.60;99.90
43987;DHT22;29650;47.378;8.300;2023-10-13T06:56:13;11.70;99.90
43987;DHT22;29650;47.378;8.300;2023-10-13T06:58:48;11.70;99.90
43987;DHT22;29650;47.378;8.300;2023-10-13T07:01:15;12.00;99.90
43987;DHT22;29650;47.378;8.300;2023-10-13T07:03:49;12.10;99.90
43987;DHT22;29650;47.378;8.300;2023-10-13T07:06:19;12.20;99.90
43987;DHT22;29650;47.378;8.300;2023-10-13T07:08:46;12.20;99.90
43987;DHT22;29650;47.378;8.300;2023-10-13T07:11:18;12.20;99.90
43987;DHT22;29650;47.378;8.300;2023-10-13T07:13:59;12.20;99.90
43987;DHT22;29650;47.378;8.300;2023-10-13T07:16:26;12.30;99.90
43987;DHT22;29650;47.378;8.300;2023-10-13T07:19:02;12.40;99.90
43987;DHT22;29650;47.378;8.300;2023-10-13T07:21:32;12.50;99.90
43987;DHT22;29650;47.378;8.300;2023-10-13T07:23:59;12.70;99.90
43987;DHT22;29650;47.378;8.300;2023-10-13T07:26:37;12.80;99.90
43987;DHT22;29650;47.378;8.300;2023-10-13T07:29:09;12.90;99.90
43987;DHT22;29650;47.378;8.300;2023-10-13T07:31:36;13.00;99.90
43987;DHT22;29650;47.378;8.300;2023-10-13T07:34:08;13.20;99.90
43987;DHT22;29650;47.378;8.300;2023-10-13T07:36:54;13.10;99.90
43987;DHT22;29650;47.378;8.300;2023-10-13T07:39:25;13.20;99.90
43987;DHT22;29650;47.378;8.300;2023-10-13T07:41:53;13.30;99.90
43987;DHT22;29650;47.378;8.300;2023-10-13T07:44:29;13.40;99.90
43987;DHT22;29650;47.378;8.300;2023-10-13T07:46:59;13.50;99.90
43987;DHT22;29650;47.378;8.300;2023-10-13T07:49:31;13.70;99.90
43987;DHT22;29650;47.378;8.300;2023-10-13T07:52:03;13.80;99.90
43987;DHT22;29650;47.378;8.300;2023-10-13T07:54:44;14.00;99.90
43987;DHT22;29650;47.378;8.300;2023-10-13T07:57:13;14.00;99.90
43987;DHT22;29650;47.378;8.300;2023-10-13T07:59:41;14.00;99.90
43987;DHT22;29650;47.378;8.300;2023-10-13T08:02:15;14.00;99.90
43987;DHT22;29650;47.378;8.300;2023-10-13T08:05:09;13.90;99.90
43987;DHT22;29650;47.378;8.300;2023-10-13T08:07:40;14.10;99.90
43987;DHT22;29650;47.378;8.300;2023-10-13T08:10:07;14.10;99.90
43987;DHT22;29650;47.378;8.300;2023-10-13T08:12:35;14.20;99.90
43987;DHT22;29650;47.378;8.300;2023-10-13T08:15:04;14.40;99.90
43987;DHT22;29650;47.378;8.300;2023-10-13T08:17:46;14.30;99.90
43987;DHT22;29650;47.378;8.300;2023-10-13T08:20:22;14.40;99.90
43987;DHT22;29650;47.378;8.300;2023-10-13T08:22:49;14.60;99.90
43987;DHT22;29650;47.378;8.300;2023-10-13T08:25:35;14.60;99.90
43987;DHT22;29650;47.378;8.300;2023-10-13T08:28:16;14.80;99.90
43987;DHT22;29650;47.378;8.300;2023-10-13T08:31:03;14.90;99.90
43987;DHT22;29650;47.378;8.300;2023-10-13T08:33:39;15.00;99.90
43987;DHT22;29650;47.378;8.300;2023-10-13T08:36:13;15.10;99.90
43987;DHT22;29650;47.378;8.300;2023-10-13T08:38:55;15.20;99.90
43987;DHT22;29650;47.378;8.300;2023-10-13T08:41:22;15.20;99.90
43987;DHT22;29650;47.378;8.300;2023-10-13T08:44:01;15.30;99.90
43987;DHT22;29650;47.378;8.300;2023-10-13T08:46:31;15.30;99.90
43987;DHT22;29650;47.378;8.300;2023-10-13T08:49:25;15.40;99.90
43987;DHT22;29650;47.378;8.300;2023-10-13T08:51:56;15.60;99.90
43987;DHT22;29650;47.378;8.300;2023-10-13T08:54:35;15.70;99.90
43987;DHT22;29650;47.378;8.300;2023-10-13T08:57:04;15.90;99.90
43987;DHT22;29650;47.378;8.300;2023-10-13T08:59:45;16.00;99.90
43987;DHT22;29650;47.378;8.300;2023-10-13T09:02:21;16.00;99.90
43987;DHT22;29650;47.378;8.300;2023-10-13T09:05:09;15.80;99.90
43987;DHT22;29650;47.378;8.300;2023-10-13T09:07:57;16.20;99.90
43987;DHT22;29650;47.378;8.300;2023-10-13T09:10:34;16.20;99.90
43987;DHT22;29650;47.378;8.300;2023-10-13T09:13:10;16.30;99.90
43987;DHT22;29650;47.378;8.300;2023-10-13T09:15:44;16.40;98.60
43987;DHT22;29650;47.378;8.300;2023-10-13T09:18:25;16.70;99.90
43987;DHT22;29650;47.378;8.300;2023-10-13T09:21:06;16.80;97.40
43987;DHT22;29650;47.378;8.300;2023-10-13T09:23:56;16.90;95.70
43987;DHT22;29650;47.378;8.300;2023-10-13T09:26:37;17.10;92.90
43987;DHT22;29650;47.378;8.300;2023-10-13T09:29:14;17.20;91.70
43987;DHT22;29650;47.378;8.300;2023-10-13T09:31:40;17.30;88.40
43987;DHT22;29650;47.378;8.300;2023-10-13T09:34:10;17.40;88.10
43987;DHT22;29650;47.378;8.300;2023-10-13T09:36:36;17.60;87.00
43987;DHT22;29650;47.378;8.300;2023-10-13T09:39:05;17.60;77.00
43987;DHT22;29650;47.378;8.300;2023-10-13T09:41:40;17.60;75.30
43987;DHT22;29650;47.378;8.300;2023-10-13T09:44:07;17.80;73.00
43987;DHT22;29650;47.378;8.300;2023-10-13T09:46:37;18.10;78.20
43987;DHT22;29650;47.378;8.300;2023-10-13T09:49:12;18.10;73.60
43987;DHT22;29650;47.378;8.300;2023-10-13T09:51:48;18.20;69.00
43987;DHT22;29650;47.378;8.300;2023-10-13T09:54:29;18.20;62.20
43987;DHT22;29650;47.378;8.300;2023-10-13T09:56:58;18.20;61.70
43987;DHT22;29650;47.378;8.300;2023-10-13T09:59:32;18.50;61.30
43987;DHT22;29650;47.378;8.300;2023-10-13T10:02:00;18.60;63.90
43987;DHT22;29650;47.378;8.300;2023-10-13T10:04:34;18.70;63.70
43987;DHT22;29650;47.378;8.300;2023-10-13T10:07:07;18.80;58.30
43987;DHT22;29650;47.378;8.300;2023-10-13T10:09:35;18.90;60.90
43987;DHT22;29650;47.378;8.300;2023-10-13T10:12:16;18.90;56.60
43987;DHT22;29650;47.378;8.300;2023-10-13T10:15:09;18.90;54.80
43987;DHT22;29650;47.378;8.300;2023-10-13T10:17:46;19.20;54.00
43987;DHT22;29650;47.378;8.300;2023-10-13T10:20:13;19.40;54.40
43987;DHT22;29650;47.378;8.300;2023-10-13T10:22:56;19.50;50.90
43987;DHT22;29650;47.378;8.300;2023-10-13T10:25:33;19.60;52.00
43987;DHT22;29650;47.378;8.300;2023-10-13T10:28:02;19.70;51.80
43987;DHT22;29650;47.378;8.300;2023-10-13T10:30:32;19.70;53.90
43987;DHT22;29650;47.378;8.300;2023-10-13T10:33:01;19.80;52.60
43987;DHT22;29650;47.378;8.300;2023-10-13T10:35:33;19.90;49.20
43987;DHT22;29650;47.378;8.300;2023-10-13T10:38:07;20.00;48.60
43987;DHT22;29650;47.378;8.300;2023-10-13T10:40:52;20.10;46.20
43987;DHT22;29650;47.378;8.300;2023-10-13T10:43:27;20.40;48.60
43987;DHT22;29650;47.378;8.300;2023-10-13T10:46:07;20.50;45.60
43987;DHT22;29650;47.378;8.300;2023-10-13T10:48:36;20.60;42.50
43987;DHT22;29650;47.378;8.300;2023-10-13T10:51:05;20.60;40.60
43987;DHT22;29650;47.378;8.300;2023-10-13T10:53:39;20.40;39.60
43987;DHT22;29650;47.378;8.300;2023-10-13T10:56:12;20.50;39.50
43987;DHT22;29650;47.378;8.300;2023-10-13T10:58:53;21.00;41.00
43987;DHT22;29650;47.378;8.300;2023-10-13T11:01:21;21.10;41.20
43987;DHT22;29650;47.378;8.300;2023-10-13T11:03:55;21.00;39.10
43987;DHT22;29650;47.378;8.300;2023-10-13T11:06:24;21.00;37.10
43987;DHT22;29650;47.378;8.300;2023-10-13T11:09:04;21.00;38.00
43987;DHT22;29650;47.378;8.300;2023-10-13T11:11:45;21.00;36.80
43987;DHT22;29650;47.378;8.300;2023-10-13T11:14:21;21.20;34.60
43987;DHT22;29650;47.378;8.300;2023-10-13T11:16:53;21.50;34.50
43987;DHT22;29650;47.378;8.300;2023-10-13T11:19:21;21.60;31.60
43987;DHT22;29650;47.378;8.300;2023-10-13T11:21:54;21.50;31.40
43987;DHT22;29650;47.378;8.300;2023-10-13T11:24:21;21.50;31.00
43987;DHT22;29650;47.378;8.300;2023-10-13T11:26:50;21.80;21.10
43987;DHT22;29650;47.378;8.300;2023-10-13T11:29:18;21.80;17.90
43987;DHT22;29650;47.378;8.300;2023-10-13T11:31:49;22.00;17.70
43987;DHT22;29650;47.378;8.300;2023-10-13T11:34:24;22.30;15.00
43987;DHT22;29650;47.378;8.300;2023-10-13T11:36:51;22.50;14.40
43987;DHT22;29650;47.378;8.300;2023-10-13T11:39:18;22.40;14.40
43987;DHT22;29650;47.378;8.300;2023-10-13T11:41:51;22.70;13.10
43987;DHT22;29650;47.378;8.300;2023-10-13T11:44:21;22.70;12.10
43987;DHT22;29650;47.378;8.300;2023-10-13T11:46:57;22.80;10.10
43987;DHT22;29650;47.378;8.300;2023-10-13T11:49:33;22.90;8.90
43987;DHT22;29650;47.378;8.300;2023-10-13T11:52:03;22.90;8.00
43987;DHT22;29650;47.378;8.300;2023-10-13T11:54:41;22.70;8.80
43987;DHT22;29650;47.378;8.300;2023-10-13T11:57:10;22.90;8.90
43987;DHT22;29650;47.378;8.300;2023-10-13T11:59:36;22.90;9.20
43987;DHT22;29650;47.378;8.300;2023-10-13T12:02:11;22.90;9.20
43987;DHT22;29650;47.378;8.300;2023-10-13T12:04:55;23.20;8.10
43987;DHT22;29650;47.378;8.300;2023-10-13T12:07:24;23.20;7.00
43987;DHT22;29650;47.378;8.300;2023-10-13T12:10:06;23.20;6.30
43987;DHT22;29650;47.378;8.300;2023-10-13T12:12:42;23.30;6.20
43987;DHT22;29650;47.378;8.300;2023-10-13T12:15:12;23.20;7.10
43987;DHT22;29650;47.378;8.300;2023-10-13T12:17:51;23.30;7.20
43987;DHT22;29650;47.378;8.300;2023-10-13T12:20:18;23.30;6.20
43987;DHT22;29650;47.378;8.300;2023-10-13T12:22:58;23.60;5.70
43987;DHT22;29650;47.378;8.300;2023-10-13T12:25:37;23.60;4.60
43987;DHT22;29650;47.378;8.300;2023-10-13T12:28:22;23.40;5.70
43987;DHT22;29650;47.378;8.300;2023-10-13T12:30:53;23.40;5.90
43987;DHT22;29650;47.378;8.300;2023-10-13T12:33:20;23.40;6.40
43987;DHT22;29650;47.378;8.300;2023-10-13T12:36:03;23.60;5.60
43987;DHT22;29650;47.378;8.300;2023-10-13T12:38:33;23.60;4.90
43987;DHT22;29650;47.378;8.300;2023-10-13T12:41:37;23.80;4.60
43987;DHT22;29650;47.378;8.300;2023-10-13T12:44:24;23.40;6.00
43987;DHT22;29650;47.378;8.300;2023-10-13T12:47:08;23.30;6.20
43987;DHT22;29650;47.378;8.300;2023-10-13T12:49:53;23.50;6.30
43987;DHT22;29650;47.378;8.300;2023-10-13T12:52:25;23.40;6.40
43987;DHT22;29650;47.378;8.300;2023-10-13T12:54:52;23.40;6.50
43987;DHT22;29650;47.378;8.300;2023-10-13T12:57:31;23.50;6.60
43987;DHT22;29650;47.378;8.300;2023-10-13T13:00:00;23.50;6.70
43987;DHT22;29650;47.378;8.300;2023-10-13T13:02:42;23.60;7.00
43987;DHT22;29650;47.378;8.300;2023-10-13T13:05:09;23.80;6.50
43987;DHT22;29650;47.378;8.300;2023-10-13T13:07:38;23.70;6.70
43987;DHT22;29650;47.378;8.300;2023-10-13T13:10:10;23.70;7.10
43987;DHT22;29650;47.378;8.300;2023-10-13T13:12:37;23.90;5.80
43987;DHT22;29650;47.378;8.300;2023-10-13T13:15:06;23.80;6.20
43987;DHT22;29650;47.378;8.300;2023-10-13T13:17:34;23.70;6.10
43987;DHT22;29650;47.378;8.300;2023-10-13T13:20:01;23.70;7.10
43987;DHT22;29650;47.378;8.300;2023-10-13T13:22:36;23.80;6.40
43987;DHT22;29650;47.378;8.300;2023-10-13T13:25:04;23.90;6.40
43987;DHT22;29650;47.378;8.300;2023-10-13T13:27:34;24.00;5.40
43987;DHT22;29650;47.378;8.300;2023-10-13T13:30:02;24.00;4.50
43987;DHT22;29650;47.378;8.300;2023-10-13T13:32:38;24.10;4.50
43987;DHT22;29650;47.378;8.300;2023-10-13T13:35:07;24.20;4.40
43987;DHT22;29650;47.378;8.300;2023-10-13T13:37:39;24.10;5.20
43987;DHT22;29650;47.378;8.300;2023-10-13T13:40:09;23.80;5.60
43987;DHT22;29650;47.378;8.300;2023-10-13T13:42:44;24.00;4.60
43987;DHT22;29650;47.378;8.300;2023-10-13T13:45:14;24.00;4.80
43987;DHT22;29650;47.378;8.300;2023-10-13T13:47:48;24.00;5.00
43987;DHT22;29650;47.378;8.300;2023-10-13T13:50:20;23.90;5.10
43987;DHT22;29650;47.378;8.300;2023-10-13T13:52:51;24.00;5.40
43987;DHT22;29650;47.378;8.300;2023-10-13T13:55:19;24.30;4.70
43987;DHT22;29650;47.378;8.300;2023-10-13T13:57:46;24.10;4.60
43987;DHT22;29650;47.378;8.300;2023-10-13T14:00:16;24.10;4.30
43987;DHT22;29650;47.378;8.300;2023-10-13T14:02:50;24.10;4.70
43987;DHT22;29650;47.378;8.300;2023-10-13T14:05:17;24.10;4.80
43987;DHT22;29650;47.378;8.300;2023-10-13T14:07:45;24.20;4.00
43987;DHT22;29650;47.378;8.300;2023-10-13T14:10:16;24.00;4.40
43987;DHT22;29650;47.378;8.300;2023-10-13T14:12:59;24.20;4.50
43987;DHT22;29650;47.378;8.300;2023-10-13T14:15:33;24.20;4.70
43987;DHT22;29650;47.378;8.300;2023-10-13T14:18:07;24.30;4.40
43987;DHT22;29650;47.378;8.300;2023-10-13T14:20:40;24.20;4.40
43987;DHT22;29650;47.378;8.300;2023-10-13T14:23:08;24.10;4.90
43987;DHT22;29650;47.378;8.300;2023-10-13T14:25:38;24.20;4.30
43987;DHT22;29650;47.378;8.300;2023-10-13T14:28:10;24.10;4.40
43987;DHT22;29650;47.378;8.300;2023-10-13T14:30:42;24.20;4.70
43987;DHT22;29650;47.378;8.300;2023-10-13T14:33:11;24.20;4.60
43987;DHT22;29650;47.378;8.300;2023-10-13T14:35:38;24.10;4.60
43987;DHT22;29650;47.378;8.300;2023-10-13T14:38:05;24.20;4.20
43987;DHT22;29650;47.378;8.300;2023-10-13T14:40:32;24.40;3.50
43987;DHT22;29650;47.378;8.300;2023-10-13T14:42:59;24.20;4.30
43987;DHT22;29650;47.378;8.300;2023-10-13T14:45:26;24.40;3.80
43987;DHT22;29650;47.378;8.300;2023-10-13T14:47:54;24.50;3.50
43987;DHT22;29650;47.378;8.300;2023-10-13T14:50:22;24.40;3.70
43987;DHT22;29650;47.378;8.300;2023-10-13T14:52:50;24.40;4.40
43987;DHT22;29650;47.378;8.300;2023-10-13T14:55:17;24.40;4.60
43987;DHT22;29650;47.378;8.300;2023-10-13T14:57:47;24.40;4.60
43987;DHT22;29650;47.378;8.300;2023-10-13T15:00:15;24.40;4.50
43987;DHT22;29650;47.378;8.300;2023-10-13T15:02:50;24.40;4.50
43987;DHT22;29650;47.378;8.300;2023-10-13T15:05:18;24.50;4.40
43987;DHT22;29650;47.378;8.300;2023-10-13T15:07:46;24.40;4.40
43987;DHT22;29650;47.378;8.300;2023-10-13T15:10:14;24.50;4.30
43987;DHT22;29650;47.378;8.300;2023-10-13T15:12:42;24.40;4.80
43987;DHT22;29650;47.378;8.300;2023-10-13T15:15:10;24.60;4.20
43987;DHT22;29650;47.378;8.300;2023-10-13T15:17:42;24.50;4.30
43987;DHT22;29650;47.378;8.300;2023-10-13T15:20:09;24.50;4.60
43987;DHT22;29650;47.378;8.300;2023-10-13T15:22:41;24.50;3.90
43987;DHT22;29650;47.378;8.300;2023-10-13T15:25:10;24.60;3.50
43987;DHT22;29650;47.378;8.300;2023-10-13T15:27:46;24.60;3.20
43987;DHT22;29650;47.378;8.300;2023-10-13T15:30:21;24.70;3.20
43987;DHT22;29650;47.378;8.300;2023-10-13T15:32:49;24.70;3.10
43987;DHT22;29650;47.378;8.300;2023-10-13T15:35:17;24.60;3.20
43987;DHT22;29650;47.378;8.300;2023-10-13T15:37:44;24.50;3.50
43987;DHT22;29650;47.378;8.300;2023-10-13T15:40:15;24.50;3.70
43987;DHT22;29650;47.378;8.300;2023-10-13T15:42:42;24.40;4.20
43987;DHT22;29650;47.378;8.300;2023-10-13T15:45:11;23.90;4.80
43987;DHT22;29650;47.378;8.300;2023-10-13T15:47:44;23.70;5.40
43987;DHT22;29650;47.378;8.300;2023-10-13T15:50:13;23.60;4.90
43987;DHT22;29650;47.378;8.300;2023-10-13T15:52:41;23.50;4.70
43987;DHT22;29650;47.378;8.300;2023-10-13T15:55:12;23.40;5.40
43987;DHT22;29650;47.378;8.300;2023-10-13T15:57:41;23.40;4.90
43987;DHT22;29650;47.378;8.300;2023-10-13T16:00:10;23.30;5.00
43987;DHT22;29650;47.378;8.300;2023-10-13T16:02:53;23.10;5.70
43987;DHT22;29650;47.378;8.300;2023-10-13T16:05:22;22.90;6.10
43987;DHT22;29650;47.378;8.300;2023-10-13T16:07:51;22.70;7.60
43987;DHT22;29650;47.378;8.300;2023-10-13T16:10:21;22.40;9.10
43987;DHT22;29650;47.378;8.300;2023-10-13T16:12:49;22.20;10.20
43987;DHT22;29650;47.378;8.300;2023-10-13T16:15:16;22.10;11.20
43987;DHT22;29650;47.378;8.300;2023-10-13T16:17:44;21.90;12.80